Time;durP1;ratioP1;P1;durP2;ratioP2;P2;SDS_P1;SDS_P2;PMS_P1;PMS_P2;Temp;Humidity;BMP_temperature;BMP_pressure;BME280_temperature;BME280_humidity;BME280_pressure;Samples;Min_cycle;Max_cycle;Signal;HPM_P1;HPM_P2
2023/12/19 00:00:51;;;;;;;;;80.50;64.50;;;;;5.98;33.95;100704.16;5010855;28;11684;-81
2023/12/19 00:03:42;;;;;;;;;96.25;83.00;;;;;5.95;34.25;100704.13;5023946;28;10473;-79
2023/12/19 00:06:11;;;;;;;;;95.00;80.50;;;;;5.96;33.67;100691.94;5030624;28;10470;-80
2023/12/19 00:08:40;;;;;;;;;93.50;80.50;;;;;5.88;33.98;100694.44;5031565;28;10372;-80
2023/12/19 00:11:09;;;;;;;;;94.50;82.75;;;;;5.74;34.05;100694.19;5029722;28;11099;-80
2023/12/19 00:13:38;;;;;;;;;92.00;76.75;;;;;5.74;34.04;100691.59;5022533;28;10386;-79
2023/12/19 00:16:07;;;;;;;;;92.25;77.25;;;;;5.64;34.17;100682.75;5009703;28;10458;-80
2023/12/19 00:18:36;;;;;;;;;87.50;68.25;;;;;5.74;33.45;100688.97;5034793;28;9992;-81
2023/12/19 00:21:07;;;;;;;;;82.25;67.00;;;;;5.82;33.83;100686.50;5030584;28;9869;-80
2023/12/19 00:23:37;;;;;;;;;80.00;65.33;;;;;5.86;33.71;100680.47;5010264;28;9711;-79
2023/12/19 00:26:06;;;;;;;;;81.00;62.33;;;;;5.91;33.05;100682.31;5009354;28;9549;-79
2023/12/19 00:28:36;;;;;;;;;85.33;66.33;;;;;5.92;33.62;100678.84;5009323;28;9489;-80
2023/12/19 00:31:05;;;;;;;;;77.00;61.33;;;;;5.96;33.06;100674.53;5025445;28;9532;-78
2023/12/19 00:33:34;;;;;;;;;75.75;59.50;;;;;5.94;32.96;100671.03;5016044;28;9108;-81
2023/12/19 00:36:04;;;;;;;;;75.67;61.33;;;;;5.72;33.34;100670.69;4995314;28;8876;-81
2023/12/19 00:38:34;;;;;;;;;75.33;59.67;;;;;5.70;33.50;100684.56;5028207;28;8934;-81
2023/12/19 00:41:03;;;;;;;;;71.00;58.50;;;;;5.77;33.50;100688.16;4992949;28;9003;-79
2023/12/19 00:43:32;;;;;;;;;78.00;62.33;;;;;5.88;33.65;100692.69;5025780;28;8873;-78
2023/12/19 00:46:01;;;;;;;;;89.00;69.50;;;;;5.93;34.01;100675.38;4965970;28;10112;-80
2023/12/19 00:48:32;;;;;;;;;71.00;58.75;;;;;5.98;33.64;100682.41;5053973;28;9655;-80
2023/12/19 00:51:01;;;;;;;;;67.75;54.50;;;;;6.01;33.61;100682.47;5019034;28;8890;-80
2023/12/19 00:53:30;;;;;;;;;65.00;52.25;;;;;6.00;33.19;100672.88;5020665;28;8848;-80
2023/12/19 00:56:00;;;;;;;;;61.50;49.25;;;;;6.04;33.22;100677.28;5029881;28;8882;-79
2023/12/19 00:58:30;;;;;;;;;52.00;42.50;;;;;6.02;33.44;100671.16;5029522;28;8848;-80
2023/12/19 01:00:58;;;;;;;;;59.25;49.00;;;;;6.04;32.82;100674.66;4992854;28;8856;-79
2023/12/19 01:03:28;;;;;;;;;67.50;52.50;;;;;6.05;33.06;100666.00;5025323;28;8838;-80
2023/12/19 01:05:57;;;;;;;;;65.00;53.50;;;;;5.91;33.40;100671.00;5010123;28;8866;-80
2023/12/19 01:08:26;;;;;;;;;60.50;50.75;;;;;5.72;32.34;100680.25;5011488;28;8838;-80
2023/12/19 01:10:55;;;;;;;;;59.75;48.75;;;;;5.65;32.34;100679.25;5024339;28;8866;-80
2023/12/19 01:13:26;;;;;;;;;58.75;48.50;;;;;5.66;32.22;100667.97;5022136;28;8877;-80
2023/12/19 01:15:54;;;;;;;;;60.50;46.75;;;;;5.75;31.98;100669.84;5010846;28;8912;-78
2023/12/19 01:18:24;;;;;;;;;59.75;49.25;;;;;5.70;32.00;100663.69;5036414;28;8859;-79
2023/12/19 01:20:53;;;;;;;;;62.00;50.50;;;;;5.82;31.74;100661.28;5013744;28;8937;-80
2023/12/19 01:23:23;;;;;;;;;70.25;55.50;;;;;5.91;32.56;100655.34;5031520;28;8919;-79
2023/12/19 01:25:52;;;;;;;;;68.00;55.25;;;;;5.98;32.36;100651.09;5017423;28;8858;-80
2023/12/19 01:28:21;;;;;;;;;76.00;60.75;;;;;6.07;32.96;100661.66;4959941;28;8846;-79
2023/12/19 01:30:51;;;;;;;;;69.25;55.00;;;;;6.10;32.48;100653.91;4991906;28;8952;-79
2023/12/19 01:33:20;;;;;;;;;71.25;56.75;;;;;6.14;32.56;100658.31;5028345;28;8937;-80
2023/12/19 01:35:50;;;;;;;;;60.50;48.50;;;;;6.18;32.55;100654.00;5047856;28;9568;-80
2023/12/19 01:38:19;;;;;;;;;60.50;50.25;;;;;6.14;32.16;100658.31;5047697;28;8854;-81
2023/12/19 01:40:48;;;;;;;;;55.75;44.75;;;;;6.10;31.85;100649.53;5031207;28;9004;-79
2023/12/19 01:43:19;;;;;;;;;37.80;36.60;;;;;6.04;32.24;100648.56;5047379;28;8955;-80
2023/12/19 01:45:50;;;;;;;;;43.00;37.00;;;;;6.12;31.81;100653.06;5030995;28;8874;-79
2023/12/19 01:48:24;;;;;;;;;51.75;42.75;;;;;6.16;32.59;100651.38;5029463;28;8884;-80
2023/12/19 01:50:53;;;;;;;;;58.00;47.50;;;;;6.22;32.86;100653.19;5015175;28;8846;-79
2023/12/19 01:53:24;;;;;;;;;60.00;46.25;;;;;6.29;32.66;100648.09;5031119;28;8850;-79
2023/12/19 01:55:55;;;;;;;;;46.25;40.00;;;;;6.32;32.43;100636.78;5047588;28;8921;-78
2023/12/19 01:58:28;;;;;;;;;32.75;30.25;;;;;6.32;32.67;100632.47;5030617;28;8830;-80
2023/12/19 02:00:58;;;;;;;;;36.75;34.75;;;;;6.27;32.54;100639.34;5039846;28;8834;-79
2023/12/19 02:03:29;;;;;;;;;43.50;39.75;;;;;6.35;31.95;100641.19;5063636;28;8850;-79
2023/12/19 02:05:59;;;;;;;;;52.75;44.25;;;;;6.32;32.51;100632.47;5055985;28;8943;-78
2023/12/19 02:08:28;;;;;;;;;57.50;45.50;;;;;6.36;32.89;100632.50;4980381;28;8851;-79
2023/12/19 02:10:57;;;;;;;;;49.25;41.75;;;;;6.32;32.47;100639.41;5022957;28;8862;-79
2023/12/19 02:13:26;;;;;;;;;43.75;39.00;;;;;6.29;32.05;100631.53;5008239;28;8980;-80
2023/12/19 02:15:55;;;;;;;;;41.00;37.50;;;;;6.34;32.21;100624.63;4991678;28;8884;-80
2023/12/19 02:18:24;;;;;;;;;58.50;48.25;;;;;6.40;32.62;100623.84;5020793;28;8824;-79
2023/12/19 02:20:55;;;;;;;;;49.00;41.25;;;;;6.31;32.44;100624.59;5011775;28;8940;-80
2023/12/19 02:23:26;;;;;;;;;55.50;45.00;;;;;6.42;33.17;100624.78;5016125;28;9014;-79
2023/12/19 02:25:55;;;;;;;;;48.25;42.50;;;;;6.43;32.60;100611.69;5029376;28;8872;-79
2023/12/19 02:28:24;;;;;;;;;40.50;37.00;;;;;6.40;32.76;100608.16;5028027;28;9618;-81
2023/12/19 02:30:53;;;;;;;;;34.25;32.00;;;;;6.43;31.53;100605.59;5017357;28;8838;-80
2023/12/19 02:33:22;;;;;;;;;32.00;30.00;;;;;6.44;32.13;100610.00;5026454;28;8924;-80
2023/12/19 02:35:51;;;;;;;;;54.25;45.25;;;;;6.38;32.34;100616.00;4992359;28;8955;-78
2023/12/19 02:38:20;;;;;;;;;48.75;40.00;;;;;6.42;32.47;100616.94;5009091;28;8897;-80
2023/12/19 02:40:52;;;;;;;;;57.25;45.25;;;;;6.44;32.13;100618.69;4991209;28;8995;-81
2023/12/19 02:43:21;;;;;;;;;47.25;40.00;;;;;6.41;32.18;100615.16;5008776;28;8857;-81
2023/12/19 02:45:49;;;;;;;;;52.00;43.25;;;;;6.44;32.19;100621.31;5031367;28;8839;-79
2023/12/19 02:48:19;;;;;;;;;55.75;45.00;;;;;6.45;32.45;100612.59;5011682;28;8870;-80
2023/12/19 02:50:48;;;;;;;;;55.00;46.50;;;;;6.44;32.84;100604.75;5028442;28;8871;-80
2023/12/19 02:53:17;;;;;;;;;56.75;47.00;;;;;6.47;32.68;100600.47;5040057;28;8854;-80
2023/12/19 02:55:46;;;;;;;;;57.50;48.00;;;;;6.48;32.38;100598.72;5023681;28;8964;-79
2023/12/19 02:58:16;;;;;;;;;54.50;44.75;;;;;6.42;33.23;100598.66;5012604;28;8847;-80
2023/12/19 03:00:45;;;;;;;;;61.25;50.00;;;;;6.44;32.97;100597.81;4994181;28;8886;-81
2023/12/19 03:03:14;;;;;;;;;71.25;56.50;;;;;6.44;33.40;100599.53;5028868;28;9727;-79
2023/12/19 03:05:43;;;;;;;;;69.00;54.00;;;;;6.40;33.69;100596.00;5027307;28;8866;-79
2023/12/19 03:08:13;;;;;;;;;77.50;61.50;;;;;6.38;33.70;100594.22;5027666;28;9687;-79
2023/12/19 03:10:41;;;;;;;;;59.75;51.00;;;;;6.32;33.25;100592.41;5028872;28;8886;-79
2023/12/19 03:13:10;;;;;;;;;62.75;49.00;;;;;6.28;33.16;100588.88;5011793;28;8858;-79
2023/12/19 03:15:41;;;;;;;;;56.50;46.00;;;;;6.25;32.95;100599.28;5008588;28;8947;-79
2023/12/19 03:18:10;;;;;;;;;47.25;42.25;;;;;6.15;33.25;100597.38;5054487;28;8850;-78
2023/12/19 03:20:39;;;;;;;;;58.25;47.75;;;;;6.15;33.42;100597.38;5024214;28;8866;-80
2023/12/19 03:23:08;;;;;;;;;57.75;48.50;;;;;6.16;32.90;100588.72;4996045;28;8876;-81
2023/12/19 03:25:37;;;;;;;;;55.50;46.00;;;;;6.18;33.33;100586.13;5027070;28;9651;-73
2023/12/19 03:28:06;;;;;;;;;67.25;54.25;;;;;6.04;33.58;100592.03;5045583;28;8870;-78
2023/12/19 03:30:35;;;;;;;;;68.50;54.25;;;;;6.10;34.07;100586.91;5030029;28;8846;-80
2023/12/19 03:33:06;;;;;;;;;73.75;59.50;;;;;6.10;33.77;100584.28;4981075;28;8872;-79
2023/12/19 03:35:34;;;;;;;;;65.50;54.00;;;;;6.09;33.86;100590.34;5014218;28;8890;-79
2023/12/19 03:38:04;;;;;;;;;59.25;47.75;;;;;6.12;33.95;100593.00;5015429;28;8871;-79
2023/12/19 03:40:35;;;;;;;;;66.50;54.75;;;;;6.05;33.90;100579.84;5031765;28;8906;-78
2023/12/19 03:43:05;;;;;;;;;64.00;53.00;;;;;6.06;33.98;100579.03;5039924;28;8859;-81
2023/12/19 03:45:34;;;;;;;;;63.25;50.25;;;;;6.08;33.67;100577.31;5048320;28;8871;-80
2023/12/19 03:48:05;;;;;;;;;60.75;49.00;;;;;6.08;33.88;100579.91;5019322;28;8882;-78
2023/12/19 03:50:34;;;;;;;;;60.25;50.00;;;;;6.07;33.56;100579.00;5009964;28;8861;-79
2023/12/19 03:53:03;;;;;;;;;43.25;39.50;;;;;5.86;33.13;100579.59;4993767;28;8897;-81
2023/12/19 03:55:32;;;;;;;;;47.00;41.00;;;;;5.88;33.52;100572.66;4992503;28;8883;-78
2023/12/19 03:58:01;;;;;;;;;46.25;40.25;;;;;5.89;32.66;100578.78;4948056;28;8852;-79
2023/12/19 04:00:30;;;;;;;;;36.25;35.00;;;;;5.96;33.62;100584.94;4981032;28;9023;-79
2023/12/19 04:02:59;;;;;;;;;69.75;54.00;;;;;6.01;33.84;100584.16;4997105;28;8928;-80
2023/12/19 04:05:30;;;;;;;;;55.75;44.50;;;;;6.02;34.12;100577.19;4990678;28;8862;-80
2023/12/19 04:07:59;;;;;;;;;58.25;47.50;;;;;6.03;33.66;100579.81;5009536;28;8874;-80
2023/12/19 04:10:28;;;;;;;;;56.75;47.25;;;;;6.03;33.53;100582.44;5025427;28;9727;-79
2023/12/19 04:12:58;;;;;;;;;53.50;44.25;;;;;5.93;33.07;100578.81;5009581;28;8992;-79
2023/12/19 04:15:27;;;;;;;;;58.00;46.50;;;;;5.72;34.55;100581.13;4993342;28;8870;-80
2023/12/19 04:17:56;;;;;;;;;52.00;43.25;;;;;5.79;34.56;100580.34;5027607;28;8981;-80
2023/12/19 04:20:24;;;;;;;;;48.50;43.50;;;;;5.80;34.22;100589.06;4998753;28;8870;-80
2023/12/19 04:22:55;;;;;;;;;48.50;43.25;;;;;5.87;34.20;100580.47;5029744;28;8889;-79
2023/12/19 04:25:24;;;;;;;;;57.50;43.50;;;;;5.92;34.04;100573.56;5010337;28;9004;-79
2023/12/19 04:27:53;;;;;;;;;47.00;42.25;;;;;5.92;33.63;100571.84;5026847;28;8854;-79
2023/12/19 04:30:22;;;;;;;;;54.75;45.00;;;;;5.92;33.65;100573.56;5009896;28;8866;-79
2023/12/19 04:32:52;;;;;;;;;57.75;48.25;;;;;5.85;34.25;100582.16;5012289;28;9608;-80
2023/12/19 04:35:21;;;;;;;;;59.75;50.25;;;;;5.81;34.06;100572.53;5031913;28;8892;-80
2023/12/19 04:37:50;;;;;;;;;56.00;46.00;;;;;5.65;34.32;100577.53;5026905;28;9037;-80
2023/12/19 04:40:20;;;;;;;;;54.25;43.25;;;;;5.62;34.49;100574.84;5043163;28;9044;-80
2023/12/19 04:42:49;;;;;;;;;52.00;41.75;;;;;5.75;34.16;100575.06;5010336;28;9674;-80
2023/12/19 04:45:18;;;;;;;;;55.75;45.25;;;;;5.80;34.27;100574.28;4992939;28;8892;-80
2023/12/19 04:47:47;;;;;;;;;50.00;43.50;;;;;5.82;33.84;100582.13;5026377;28;8901;-80
2023/12/19 04:50:17;;;;;;;;;49.75;44.50;;;;;5.86;34.28;100579.59;4967762;28;8968;-79
2023/12/19 04:52:46;;;;;;;;;46.00;41.00;;;;;5.77;34.27;100583.78;5013432;28;8902;-79
2023/12/19 04:55:15;;;;;;;;;58.25;49.00;;;;;5.82;34.42;100583.00;5026203;28;8850;-79
2023/12/19 04:57:45;;;;;;;;;63.25;53.25;;;;;5.84;34.17;100580.44;5010051;28;8855;-81
2023/12/19 05:00:15;;;;;;;;;66.75;52.00;;;;;5.77;34.44;100576.81;5009906;28;8865;-82
2023/12/19 05:02:44;;;;;;;;;64.00;51.75;;;;;5.81;34.64;100573.44;5010777;28;8858;-80
2023/12/19 05:05:13;;;;;;;;;68.25;54.75;;;;;5.81;35.15;100581.25;5027353;28;9596;-80
2023/12/19 05:07:42;;;;;;;;;75.75;58.75;;;;;5.84;35.46;100580.44;5042950;28;8882;-79
2023/12/19 05:10:11;;;;;;;;;71.75;57.50;;;;;5.87;34.96;100573.53;5009703;28;8870;-79
2023/12/19 05:12:40;;;;;;;;;72.25;56.50;;;;;5.84;35.73;100570.84;4992612;28;8858;-81
2023/12/19 05:15:11;;;;;;;;;66.25;55.00;;;;;5.82;35.40;100580.41;5026057;28;8892;-81
2023/12/19 05:17:40;;;;;;;;;64.75;54.25;;;;;5.74;34.91;100574.19;5010676;28;8866;-80
2023/12/19 05:20:12;;;;;;;;;63.50;51.75;;;;;5.70;35.04;100577.63;5010050;28;8870;-78
2023/12/19 05:22:41;;;;;;;;;55.00;46.25;;;;;5.69;35.29;100573.25;5028127;28;8965;-79
2023/12/19 05:25:10;;;;;;;;;64.50;52.25;;;;;5.67;35.11;100582.78;5034607;28;8848;-79
2023/12/19 05:27:43;;;;;;;;;57.50;47.25;;;;;5.63;35.21;100580.97;5046587;28;8868;-78
2023/12/19 05:30:16;;;;;;;;;66.25;53.25;;;;;5.62;35.33;100582.69;4954626;28;9633;-79
2023/12/19 05:32:45;;;;;;;;;66.00;53.50;;;;;5.60;35.15;100586.13;5028072;28;8961;-80
2023/12/19 05:35:14;;;;;;;;;66.50;53.25;;;;;5.61;35.33;100583.56;5025584;28;8872;-81
2023/12/19 05:37:44;;;;;;;;;64.00;53.50;;;;;5.63;35.76;100583.59;5024157;28;8867;-81
2023/12/19 05:40:13;;;;;;;;;64.50;51.25;;;;;5.36;35.60;100576.16;4976313;28;8846;-79
2023/12/19 05:42:42;;;;;;;;;66.50;54.75;;;;;5.30;35.85;100583.06;5026000;28;8842;-80
2023/12/19 05:45:12;;;;;;;;;69.25;55.25;;;;;5.42;35.61;100578.91;4991615;28;8896;-81
2023/12/19 05:47:42;;;;;;;;;44.50;41.25;;;;;5.47;36.09;100580.72;5027623;28;8955;-80
2023/12/19 05:50:11;;;;;;;;;72.00;58.00;;;;;5.48;36.65;100579.84;5010498;28;8860;-80
2023/12/19 05:52:40;;;;;;;;;71.50;58.00;;;;;5.46;36.28;100575.47;5024116;28;8872;-81
2023/12/19 05:55:09;;;;;;;;;117.00;104.50;;;;;5.45;36.30;100568.50;5043528;28;8863;-79
2023/12/19 05:57:39;;;;;;;;;72.25;58.00;;;;;5.41;35.86;100564.09;5040639;28;11306;-81
2023/12/19 06:00:09;;;;;;;;;70.25;57.25;;;;;5.42;36.38;100574.56;4971129;28;8900;-79
2023/12/19 06:02:39;;;;;;;;;66.25;53.75;;;;;5.44;35.78;100579.81;4971500;28;8857;-79
2023/12/19 06:05:09;;;;;;;;;62.00;50.25;;;;;5.46;35.98;100580.69;4973133;28;8860;-77
2023/12/19 06:07:39;;;;;;;;;65.50;52.75;;;;;5.43;36.23;100575.41;4983794;28;8876;-79
2023/12/19 06:10:10;;;;;;;;;70.75;57.50;;;;;5.43;36.27;100572.81;4987727;28;8861;-80
2023/12/19 06:12:40;;;;;;;;;76.25;61.00;;;;;5.33;36.36;100577.00;4988220;28;8864;-81
2023/12/19 06:15:13;;;;;;;;;75.50;60.50;;;;;5.31;36.37;100578.72;4972047;28;9657;-79
2023/12/19 06:17:44;;;;;;;;;66.67;55.33;;;;;5.28;36.56;100578.59;5019737;28;8848;-80
2023/12/19 06:20:14;;;;;;;;;74.25;57.50;;;;;5.32;36.30;100568.31;5022022;28;9104;-81
2023/12/19 06:22:43;;;;;;;;;75.75;59.75;;;;;5.34;36.25;100570.94;5004402;28;8858;-81
2023/12/19 06:25:13;;;;;;;;;66.25;54.00;;;;;5.30;36.52;100570.00;4942403;28;9008;-80
2023/12/19 06:27:43;;;;;;;;;70.50;55.50;;;;;5.33;36.43;100567.44;4988330;28;8854;-82
2023/12/19 06:30:14;;;;;;;;;77.00;61.25;;;;;5.32;36.39;100570.00;4950581;28;8845;-81
2023/12/19 06:32:57;;;;;;;;;70.00;57.50;;;;;5.36;36.13;100574.47;4933204;28;8883;-80
2023/12/19 06:35:29;;;;;;;;;75.00;58.75;;;;;5.42;36.00;100568.47;4944188;28;8914;-81
2023/12/19 06:37:59;;;;;;;;;67.75;55.75;;;;;5.47;36.16;100577.22;4924786;28;8876;-79
2023/12/19 06:40:28;;;;;;;;;64.75;54.50;;;;;5.57;35.83;100573.03;4971874;28;8985;-81
2023/12/19 06:42:57;;;;;;;;;64.00;49.50;;;;;5.56;35.80;100571.28;4988364;28;8904;-82
2023/12/19 06:45:26;;;;;;;;;65.00;53.50;;;;;5.61;35.44;100573.13;4951798;28;8853;-82
2023/12/19 06:47:55;;;;;;;;;52.75;44.75;;;;;5.36;36.35;100566.63;4920149;28;8892;-81
2023/12/19 06:50:25;;;;;;;;;45.00;39.50;;;;;5.36;35.95;100568.34;4967997;28;8861;-80
2023/12/19 06:52:56;;;;;;;;;47.25;41.25;;;;;5.52;35.70;100562.53;4968462;28;8861;-74
2023/12/19 06:55:25;;;;;;;;;45.00;38.75;;;;;5.59;35.65;100561.78;4988284;28;8965;-75
2023/12/19 06:57:55;;;;;;;;;35.80;33.60;;;;;5.61;35.35;100567.03;4970175;28;8969;-73
2023/12/19 07:00:24;;;;;;;;;30.75;30.75;;;;;5.63;35.02;100566.19;4987678;28;8882;-75
2023/12/19 07:02:53;;;;;;;;;29.00;28.40;;;;;5.75;35.11;100565.50;5008568;28;8943;-76
2023/12/19 07:05:22;;;;;;;;;41.60;36.80;;;;;5.95;34.91;100564.94;5039523;28;8866;-74
2023/12/19 07:07:51;;;;;;;;;58.50;47.25;;;;;6.17;34.77;100566.09;5018448;28;8874;-81
2023/12/19 07:10:22;;;;;;;;;75.75;60.25;;;;;6.24;35.16;100573.16;5024831;28;8952;-78
2023/12/19 07:12:52;;;;;;;;;79.00;61.00;;;;;6.43;34.99;100556.84;5013531;28;8877;-81
2023/12/19 07:15:21;;;;;;;;;76.00;62.00;;;;;6.61;35.18;100550.13;4974157;28;8969;-80
2023/12/19 07:17:50;;;;;;;;;82.33;63.67;;;;;6.76;35.08;100544.16;5009246;28;9241;-80
2023/12/19 07:20:19;;;;;;;;;77.67;61.33;;;;;6.89;34.37;100546.97;5009565;28;9281;-83
2023/12/19 07:22:48;;;;;;;;;79.50;61.00;;;;;7.05;33.98;100547.13;5016401;28;8970;-81
2023/12/19 07:25:17;;;;;;;;;84.67;66.67;;;;;7.14;34.82;100546.34;4978692;28;9046;-82
2023/12/19 07:27:48;;;;;;;;;87.25;71.00;;;;;7.26;34.62;100551.66;5004937;28;9271;-79
2023/12/19 07:30:17;;;;;;;;;89.00;73.50;;;;;7.38;34.80;100543.94;4974752;28;9979;-78
2023/12/19 07:32:48;;;;;;;;;85.50;69.25;;;;;7.48;34.76;100545.75;5007914;28;10182;-80
2023/12/19 07:35:19;;;;;;;;;87.75;72.00;;;;;7.55;33.67;100537.94;4989983;28;9965;-78
2023/12/19 07:37:48;;;;;;;;;84.00;65.67;;;;;7.64;33.65;100544.09;5007327;28;9957;-79
2023/12/19 07:40:17;;;;;;;;;78.33;60.67;;;;;7.73;33.62;100538.06;5008347;28;9356;-81
2023/12/19 07:42:48;;;;;;;;;80.25;62.75;;;;;7.90;33.44;100539.94;5007072;28;9229;-81
2023/12/19 07:45:17;;;;;;;;;96.50;84.50;;;;;8.04;33.54;100539.16;5049275;28;9556;-80
2023/12/19 07:47:47;;;;;;;;;85.00;68.25;;;;;8.17;32.98;100534.81;5052987;28;10798;-80
2023/12/19 07:50:16;;;;;;;;;94.75;89.25;;;;;8.30;33.82;100537.50;5047425;28;10157;-81
2023/12/19 07:52:45;;;;;;;;;99.75;93.75;;;;;8.43;33.49;100532.34;5044545;28;10791;-80
2023/12/19 07:55:14;;;;;;;;;110.00;98.50;;;;;8.55;33.08;100525.41;5045427;28;11404;-79
2023/12/19 07:57:43;;;;;;;;;88.25;78.50;;;;;8.63;32.48;100526.31;5031841;28;11529;-81
2023/12/19 08:00:18;;;;;;;;;97.25;89.25;;;;;8.77;32.23;100521.97;5063346;28;10761;-79
2023/12/19 08:02:52;;;;;;;;;88.00;81.25;;;;;8.83;32.37;100523.72;5041220;28;10674;-81
2023/12/19 08:05:21;;;;;;;;;88.00;79.50;;;;;8.91;32.09;100519.38;5047221;28;10488;-82
2023/12/19 08:07:51;;;;;;;;;90.25;78.25;;;;;9.02;32.04;100522.00;5029955;28;10586;-82
2023/12/19 08:10:20;;;;;;;;;89.00;79.25;;;;;9.12;31.77;100528.13;5013906;28;10343;-81
2023/12/19 08:12:49;;;;;;;;;89.25;77.25;;;;;9.21;32.13;100518.53;4981371;28;9879;-80
2023/12/19 08:15:19;;;;;;;;;79.67;66.67;;;;;9.35;31.58;100522.91;5046514;28;10200;-80
2023/12/19 08:17:48;;;;;;;;;84.50;73.25;;;;;9.45;31.40;100524.66;4994247;28;9322;-80
2023/12/19 08:20:18;;;;;;;;;92.25;86.50;;;;;9.56;31.92;100517.63;5012176;28;10164;-80
2023/12/19 08:22:47;;;;;;;;;105.75;97.25;;;;;9.65;32.03;100518.53;5010979;28;10675;-80
2023/12/19 08:25:16;;;;;;;;;117.00;106.00;;;;;9.75;32.26;100510.63;4977652;28;11403;-81
2023/12/19 08:27:45;;;;;;;;;105.75;101.00;;;;;9.81;32.24;100505.38;5012376;28;11730;-82
2023/12/19 08:30:15;;;;;;;;;83.25;69.25;;;;;9.88;32.27;100511.50;5012371;28;11692;-80
2023/12/19 08:32:46;;;;;;;;;109.50;101.75;;;;;10.01;31.89;100510.56;5027523;28;11574;-80
2023/12/19 08:35:15;;;;;;;;;107.00;93.75;;;;;10.09;31.52;100512.31;5010863;28;12381;-79
2023/12/19 08:37:45;;;;;;;;;107.50;98.25;;;;;10.16;31.26;100500.88;5013050;28;11290;-79
2023/12/19 08:40:14;;;;;;;;;105.50;97.75;;;;;10.24;31.40;100498.25;4993162;28;11680;-80
2023/12/19 08:42:43;;;;;;;;;111.75;105.50;;;;;10.32;31.56;100496.44;5011859;28;11593;-79
2023/12/19 08:45:16;;;;;;;;;118.00;111.50;;;;;10.42;31.94;100492.00;5012311;28;11728;-79
2023/12/19 08:47:47;;;;;;;;;115.50;105.75;;;;;10.44;31.54;100488.47;5012729;28;12374;-80
2023/12/19 08:50:17;;;;;;;;;107.00;101.75;;;;;10.48;31.83;100489.34;5020281;28;11624;-82
2023/12/19 08:52:47;;;;;;;;;111.50;105.75;;;;;10.45;31.92;100487.63;5016700;28;11636;-78
2023/12/19 08:55:17;;;;;;;;;118.00;110.25;;;;;10.55;31.46;100485.81;5013593;28;11683;-79
2023/12/19 08:57:46;;;;;;;;;110.00;104.75;;;;;10.58;31.82;100484.03;4993886;28;11714;-77
2023/12/19 09:00:18;;;;;;;;;117.50;104.75;;;;;10.68;32.01;100483.97;5010171;28;11627;-78
2023/12/19 09:02:49;;;;;;;;;111.75;105.00;;;;;10.77;31.84;100483.97;5011933;28;11738;-81
2023/12/19 09:05:19;;;;;;;;;127.25;119.75;;;;;10.81;32.45;100475.16;5027016;28;11676;-80
2023/12/19 09:07:48;;;;;;;;;114.75;107.75;;;;;10.88;32.60;100471.59;5010546;28;11727;-82
2023/12/19 09:10:18;;;;;;;;;145.25;130.50;;;;;10.88;32.58;100468.97;5009743;28;11790;-83
2023/12/19 09:12:47;;;;;;;;;134.00;129.75;;;;;10.95;32.80;100462.78;5010197;28;11768;-82
2023/12/19 09:15:17;;;;;;;;;144.00;136.50;;;;;11.03;32.61;100464.47;4992244;28;11681;-82
2023/12/19 09:17:46;;;;;;;;;140.00;128.50;;;;;11.02;33.14;100449.56;5030489;28;11705;-81
2023/12/19 09:20:17;;;;;;;;;158.25;149.50;;;;;11.07;32.93;100445.16;5030112;28;11655;-80
2023/12/19 09:22:46;;;;;;;;;150.00;137.50;;;;;11.09;32.82;100438.13;5027851;28;11639;-79
2023/12/19 09:25:15;;;;;;;;;182.33;164.00;;;;;11.12;32.66;100432.81;5024642;28;11766;-80
2023/12/19 09:27:46;;;;;;;;;166.67;154.00;;;;;11.16;33.07;100427.53;4991706;28;8838;-81
2023/12/19 09:30:16;;;;;;;;;146.00;136.50;;;;;11.22;32.54;100423.97;4992703;28;11644;-81
2023/12/19 09:32:46;;;;;;;;;152.00;139.50;;;;;11.25;32.78;100410.75;4988848;28;11597;-81
2023/12/19 09:35:17;;;;;;;;;144.00;133.50;;;;;11.34;32.83;100418.56;4989480;28;11631;-80
2023/12/19 09:37:46;;;;;;;;;150.00;136.50;;;;;11.40;32.38;100416.75;5000562;28;11732;-82
2023/12/19 09:40:17;;;;;;;;;146.50;137.75;;;;;11.40;32.65;100412.38;4994796;28;11894;-81
2023/12/19 09:42:46;;;;;;;;;125.25;117.25;;;;;11.44;31.98;100408.81;5023975;28;11644;-79
2023/12/19 09:45:16;;;;;;;;;119.00;109.50;;;;;11.49;31.64;100400.88;4989012;28;11613;-79
2023/12/19 09:48:00;;;;;;;;;119.00;110.00;;;;;11.68;31.85;100398.91;5008634;28;11653;-79
2023/12/19 09:50:33;;;;;;;;;112.00;103.50;;;;;11.60;31.38;100395.47;5008701;28;11659;-83
2023/12/19 09:53:07;;;;;;;;;120.75;111.25;;;;;11.60;31.60;100382.28;4991610;28;11652;-82
2023/12/19 09:55:42;;;;;;;;;132.25;126.00;;;;;11.66;31.82;100384.88;5008799;28;11660;-80
2023/12/19 09:58:13;;;;;;;;;142.25;136.25;;;;;11.70;31.70;100376.91;5005059;28;11655;-81
2023/12/19 10:00:44;;;;;;;;;151.50;140.50;;;;;11.74;31.57;100377.75;4989510;28;11691;-79
2023/12/19 10:03:16;;;;;;;;;148.00;136.50;;;;;11.79;31.53;100380.34;5013874;28;11715;-81
2023/12/19 10:05:47;;;;;;;;;133.50;126.50;;;;;11.84;31.24;100373.25;5012501;28;11828;-81
2023/12/19 10:08:17;;;;;;;;;133.25;119.00;;;;;11.90;30.97;100360.00;4959668;28;11783;-80
2023/12/19 10:10:54;;;;;;;;;124.25;122.50;;;;;12.04;31.28;100351.94;5007821;28;11822;-79
2023/12/19 10:13:28;;;;;;;;;111.50;103.00;;;;;12.04;30.83;100349.28;4959372;28;11895;-80
2023/12/19 10:16:06;;;;;;;;;112.25;102.25;;;;;12.09;31.18;100339.56;5007619;28;11776;-79
2023/12/19 10:18:57;;;;;;;;;123.00;117.00;;;;;12.12;30.51;100331.59;4991604;28;12608;-80
2023/12/19 10:21:28;;;;;;;;;99.25;89.75;;;;;12.13;30.97;100330.72;5007281;28;12655;-79
2023/12/19 10:24:11;;;;;;;;;106.50;99.25;;;;;12.29;30.50;100318.16;5007386;28;11613;-78
2023/12/19 10:26:40;;;;;;;;;111.50;101.75;;;;;12.26;30.53;100324.38;5007560;28;11661;-80
2023/12/19 10:29:11;;;;;;;;;111.75;103.25;;;;;12.29;30.43;100316.38;5008162;28;11608;-80
2023/12/19 10:31:40;;;;;;;;;108.00;99.00;;;;;12.37;30.66;100321.53;4992381;28;11637;-80
2023/12/19 10:34:18;;;;;;;;;98.25;94.75;;;;;12.51;30.71;100311.66;5020289;28;11655;-78
2023/12/19 10:36:49;;;;;;;;;90.25;86.50;;;;;12.47;30.83;100307.31;5022812;28;12343;-78
2023/12/19 10:39:19;;;;;;;;;101.75;94.25;;;;;12.51;31.06;100306.38;5008967;28;11297;-80
2023/12/19 10:41:49;;;;;;;;;89.75;81.25;;;;;12.61;30.90;100299.16;5041583;28;12074;-81
2023/12/19 10:44:20;;;;;;;;;77.75;63.25;;;;;12.65;29.94;100287.66;5009712;28;10810;-79
2023/12/19 10:46:49;;;;;;;;;77.33;64.67;;;;;12.77;30.03;100283.06;5010292;28;10000;-81
2023/12/19 10:49:18;;;;;;;;;72.00;58.33;;;;;12.84;29.90;100266.22;5009683;28;9466;-79
2023/12/19 10:51:53;;;;;;;;;72.25;56.75;;;;;12.97;29.78;100265.13;5010001;28;10012;-80
2023/12/19 10:54:26;;;;;;;;;60.75;49.25;;;;;13.01;29.66;100268.56;5010303;28;9613;-80
2023/12/19 10:57:05;;;;;;;;;58.75;46.25;;;;;13.16;29.49;100255.06;5009017;28;8981;-80
2023/12/19 10:59:46;;;;;;;;;48.50;41.50;;;;;13.25;29.51;100246.09;5008814;28;8854;-81
2023/12/19 11:02:26;;;;;;;;;42.25;36.50;;;;;13.28;29.67;100246.06;5010204;28;8956;-77
2023/12/19 11:05:13;;;;;;;;;38.50;33.00;;;;;13.34;29.40;100245.91;4991074;28;8898;-81
2023/12/19 11:07:46;;;;;;;;;40.50;34.25;;;;;13.35;29.66;100241.50;5028451;28;8855;-79
2023/12/19 11:10:19;;;;;;;;;39.25;35.25;;;;;13.35;29.49;100236.22;5011942;28;8863;-81
2023/12/19 11:12:51;;;;;;;;;45.00;38.50;;;;;13.37;29.60;100235.28;5030028;28;8859;-80
2023/12/19 11:15:21;;;;;;;;;39.25;34.75;;;;;13.40;29.80;100229.94;5028145;28;8848;-81
2023/12/19 11:17:56;;;;;;;;;41.00;36.50;;;;;13.52;29.74;100239.34;5002148;28;8904;-82
2023/12/19 11:20:31;;;;;;;;;47.25;40.75;;;;;13.56;29.95;100230.44;5041569;28;9734;-81
2023/12/19 11:23:18;;;;;;;;;45.00;36.25;;;;;13.67;29.63;100228.44;5010548;28;8870;-82
2023/12/19 11:25:54;;;;;;;;;82.75;72.50;;;;;13.58;30.10;100220.75;5030768;28;8921;-78
2023/12/19 11:28:24;;;;;;;;;81.50;71.50;;;;;13.53;30.34;100227.91;5031296;28;10177;-81
2023/12/19 11:30:53;;;;;;;;;76.00;64.50;;;;;13.50;30.35;100220.03;5027111;28;9894;-81